Terminal Aerodrome Forecast
Issued by NWS Mt. Holly, NJ

Home | Current Version | Previous Version | Text Only | Print | Product List | Glossary On
Versions: 1 2 3 4 5 6 7 8 9 10 11 12 13 14 15 16 17 18 19 20 21 22 23 24
000
FTUS41 KPHI 201700
TAFPHL
TAF
KPHL 201740Z 2018/2124 18006KT P6SM SCT050
     FM210000 18005KT P6SM SCT050 BKN250
     FM210300 18005KT P6SM VCSH BKN050
     FM211600 19009KT P6SM BKN035
     FM212100 20009KT P6SM VCSH BKN040=

USA.gov is the U.S. government's official web portal to all federal, state and local government web resources and services.